createdAt,value
2018-08-28T00:01:25.999Z,78.30
2018-08-28T00:03:55.416Z,78.84
2018-08-28T00:06:24.855Z,79.12
2018-08-28T00:08:54.269Z,79.89
2018-08-28T00:11:23.735Z,79.85
2018-08-28T00:13:53.187Z,79.70
2018-08-28T00:16:22.602Z,80.26
2018-08-28T00:18:52.040Z,81.20
2018-08-28T00:21:21.501Z,80.80
2018-08-28T00:23:50.918Z,82.48
2018-08-28T00:26:20.352Z,82.33
2018-08-28T00:28:49.811Z,82.46
2018-08-28T00:31:19.228Z,82.02
2018-08-28T00:33:48.705Z,81.31
2018-08-28T00:36:18.137Z,81.94
2018-08-28T00:38:47.546Z,81.47
2018-08-28T00:41:17.018Z,81.03
2018-08-28T00:43:46.541Z,81.63
2018-08-28T00:46:15.940Z,81.93
2018-08-28T00:48:45.363Z,82.19
2018-08-28T00:51:14.840Z,83.07
2018-08-28T00:53:44.268Z,82.87
2018-08-28T00:56:13.728Z,82.61
2018-08-28T00:58:43.153Z,83.23
2018-08-28T01:01:12.636Z,84.10
2018-08-28T01:03:42.095Z,83.17
2018-08-28T01:06:11.582Z,84.87
2018-08-28T01:08:41.052Z,84.02
2018-08-28T01:11:10.393Z,84.33
2018-08-28T01:13:39.795Z,84.62
2018-08-28T01:16:09.180Z,84.42
2018-08-28T01:18:38.645Z,84.67
2018-08-28T01:21:08.152Z,85.02
2018-08-28T01:23:37.615Z,85.07
2018-08-28T01:26:07.973Z,85.02
2018-08-28T01:28:37.416Z,85.05
2018-08-28T01:31:07.250Z,84.61
2018-08-28T01:33:36.660Z,84.78
2018-08-28T01:36:06.260Z,86.06
2018-08-28T01:38:35.708Z,85.21
2018-08-28T01:41:05.148Z,86.45
2018-08-28T01:43:34.561Z,87.02
2018-08-28T01:46:04.952Z,87.57
2018-08-28T01:48:34.367Z,86.88
2018-08-28T01:51:03.792Z,87.06
2018-08-28T01:53:33.248Z,86.81
2018-08-28T01:56:02.687Z,87.21
2018-08-28T01:58:32.092Z,86.72
2018-08-28T02:01:01.521Z,86.53
2018-08-28T02:03:30.965Z,86.90
2018-08-28T02:06:00.415Z,87.07
2018-08-28T02:08:29.880Z,86.97
2018-08-28T02:10:59.297Z,87.61
2018-08-28T02:13:28.815Z,87.28
2018-08-28T02:15:58.259Z,88.02
2018-08-28T02:18:27.686Z,88.56
2018-08-28T02:20:57.094Z,89.29
2018-08-28T02:23:26.532Z,88.57
2018-08-28T02:25:55.951Z,88.58
2018-08-28T02:28:25.352Z,89.54
2018-08-28T02:30:54.807Z,89.39
2018-08-28T02:33:24.872Z,90.19
2018-08-28T02:35:54.265Z,91.73
2018-08-28T02:38:23.675Z,91.99
2018-08-28T02:40:53.167Z,92.29
2018-08-28T02:43:22.591Z,91.89
2018-08-28T02:45:52.024Z,92.22
2018-08-28T02:48:21.451Z,92.44
2018-08-28T02:50:50.867Z,92.05
2018-08-28T02:53:20.296Z,91.76
2018-08-28T02:55:49.724Z,90.52
2018-08-28T02:58:19.164Z,90.91
2018-08-28T03:00:48.599Z,90.94
2018-08-28T03:03:18.047Z,90.43
2018-08-28T03:05:47.463Z,90.54
2018-08-28T03:08:16.896Z,89.73
2018-08-28T03:10:46.319Z,89.71
2018-08-28T03:13:15.760Z,90.29
2018-08-28T03:15:45.279Z,90.61
2018-08-28T03:18:14.731Z,91.26
2018-08-28T03:20:44.151Z,90.96
2018-08-28T03:23:13.607Z,92.13
2018-08-28T03:25:43.012Z,91.60
2018-08-28T03:28:12.412Z,91.53
2018-08-28T03:30:41.872Z,92.56
2018-08-28T03:33:11.267Z,93.67
2018-08-28T03:35:40.687Z,93.97
2018-08-28T03:38:10.180Z,95.45
2018-08-28T03:40:39.568Z,95.33
2018-08-28T03:43:09.016Z,94.02
2018-08-28T03:45:38.455Z,93.97
2018-08-28T03:48:07.919Z,93.59
2018-08-28T03:50:37.347Z,93.97
2018-08-28T03:53:07.208Z,93.04
2018-08-28T03:55:36.626Z,93.16
2018-08-28T03:58:06.322Z,92.10
2018-08-28T04:00:35.740Z,92.18
2018-08-28T04:03:05.428Z,92.53
2018-08-28T04:05:34.922Z,92.10
2018-08-28T04:08:04.967Z,91.47
2018-08-28T04:10:34.405Z,92.29
2018-08-28T04:13:03.857Z,91.63
2018-08-28T04:15:33.288Z,90.83
2018-08-28T04:18:02.689Z,90.81
2018-08-28T04:20:32.113Z,91.65
2018-08-28T04:23:01.524Z,91.09
2018-08-28T04:25:31.603Z,90.42
2018-08-28T04:28:01.031Z,90.55
2018-08-28T04:30:30.553Z,90.85
2018-08-28T04:32:59.935Z,90.42
2018-08-28T04:35:29.367Z,90.93
2018-08-28T04:37:58.776Z,91.81
2018-08-28T04:40:28.219Z,91.96
2018-08-28T04:42:57.640Z,92.54
2018-08-28T04:45:27.048Z,92.15
2018-08-28T04:47:56.522Z,91.83
2018-08-28T04:50:25.919Z,91.70
2018-08-28T04:52:55.358Z,91.81
2018-08-28T04:55:24.767Z,91.63
2018-08-28T04:57:54.187Z,91.75
2018-08-28T05:00:23.603Z,91.99
2018-08-28T05:02:53.079Z,91.94
2018-08-28T05:05:22.523Z,91.89
2018-08-28T05:07:52.056Z,91.68
2018-08-28T05:10:21.479Z,92.49
2018-08-28T05:12:50.880Z,91.61
2018-08-28T05:15:20.355Z,91.49
2018-08-28T05:17:49.849Z,90.81
2018-08-28T05:20:19.246Z,90.25
2018-08-28T05:22:48.711Z,90.32
2018-08-28T05:25:18.169Z,89.52
2018-08-28T05:27:47.868Z,88.55
2018-08-28T05:30:17.372Z,88.55
2018-08-28T05:32:47.635Z,88.72
2018-08-28T05:35:17.080Z,88.67
2018-08-28T05:37:46.511Z,87.66
2018-08-28T05:40:15.940Z,87.61
2018-08-28T05:42:45.343Z,87.41
2018-08-28T05:45:14.788Z,87.40
2018-08-28T05:47:44.191Z,87.04
2018-08-28T05:50:13.752Z,87.25
2018-08-28T05:52:43.187Z,87.33
2018-08-28T05:55:12.643Z,86.54
2018-08-28T05:57:43.032Z,86.73
2018-08-28T06:00:12.519Z,85.61
2018-08-28T06:02:41.978Z,85.80
2018-08-28T06:05:11.436Z,85.04
2018-08-28T06:07:41.083Z,85.34
2018-08-28T06:10:10.504Z,84.79
2018-08-28T06:12:39.947Z,84.49
2018-08-28T06:15:09.515Z,85.03
2018-08-28T06:17:38.943Z,85.39
2018-08-28T06:20:08.404Z,84.54
2018-08-28T06:22:37.819Z,84.93
2018-08-28T06:25:07.319Z,84.12
2018-08-28T06:27:36.783Z,84.03
2018-08-28T06:30:06.357Z,83.90
2018-08-28T06:32:35.891Z,83.65
2018-08-28T06:35:06.076Z,82.48
2018-08-28T06:37:35.495Z,82.79
2018-08-28T06:40:04.997Z,82.24
2018-08-28T06:42:34.415Z,80.73
2018-08-28T06:45:03.868Z,81.46
2018-08-28T06:47:33.288Z,81.23
2018-08-28T06:55:04.528Z,80.33
2018-08-28T06:57:33.973Z,80.14
2018-08-28T07:00:03.429Z,79.52
2018-08-28T07:02:32.983Z,79.15
2018-08-28T07:05:02.421Z,78.02
2018-08-28T07:07:31.926Z,77.79
2018-08-28T07:10:01.501Z,78.44
2018-08-28T07:12:30.983Z,79.71
2018-08-28T07:15:00.459Z,80.23
2018-08-28T07:17:29.890Z,81.45
2018-08-28T07:19:59.331Z,80.93
2018-08-28T07:22:28.771Z,79.43
2018-08-28T07:24:58.468Z,79.58
2018-08-28T07:27:27.904Z,77.75
2018-08-28T07:29:57.335Z,76.89
2018-08-28T07:32:26.796Z,75.96
2018-08-28T07:34:56.252Z,76.35
2018-08-28T07:37:25.728Z,75.18
2018-08-28T07:39:55.238Z,75.35
2018-08-28T07:42:24.701Z,74.87
2018-08-28T07:44:54.136Z,74.05
2018-08-28T07:47:23.556Z,73.87
2018-08-28T07:49:53.064Z,73.63
2018-08-28T07:52:22.511Z,73.06
2018-08-28T07:54:51.951Z,73.51
2018-08-28T07:57:21.469Z,72.63
2018-08-28T07:59:50.892Z,72.96
2018-08-28T08:02:20.332Z,72.56
2018-08-28T08:04:49.756Z,72.12
2018-08-28T08:07:19.172Z,72.01
2018-08-28T08:09:48.598Z,72.60
2018-08-28T08:12:18.023Z,71.41
2018-08-28T08:14:47.464Z,71.45
2018-08-28T08:17:16.947Z,71.31
2018-08-28T08:19:46.354Z,72.53
2018-08-28T08:22:15.884Z,71.81
2018-08-28T08:24:45.240Z,70.15
2018-08-28T08:27:14.653Z,70.16
2018-08-28T08:29:44.152Z,69.82
2018-08-28T08:32:13.580Z,68.62
2018-08-28T08:34:43.009Z,69.33
2018-08-28T08:37:12.484Z,69.37
2018-08-28T08:39:41.911Z,69.08
2018-08-28T08:42:11.399Z,69.11
2018-08-28T08:44:40.808Z,67.88
2018-08-28T08:47:10.307Z,67.20
2018-08-28T08:49:39.752Z,67.74
2018-08-28T08:52:09.191Z,65.60
2018-08-28T08:54:38.661Z,64.90
2018-08-28T08:57:08.104Z,63.98
2018-08-28T08:59:37.501Z,62.88
2018-08-28T09:02:06.972Z,62.07
2018-08-28T09:04:36.421Z,60.50
2018-08-28T09:07:06.105Z,61.69
2018-08-28T09:09:35.580Z,59.73
2018-08-28T09:12:05.107Z,59.11
2018-08-28T09:14:34.513Z,59.05
2018-08-28T09:17:03.933Z,57.38
2018-08-28T09:19:33.353Z,56.69
2018-08-28T09:22:02.797Z,56.79
2018-08-28T09:24:32.239Z,56.03
2018-08-28T09:27:01.888Z,54.41
2018-08-28T09:29:31.292Z,57.05
2018-08-28T09:32:00.715Z,57.57
2018-08-28T09:34:30.193Z,55.87
2018-08-28T09:36:59.644Z,54.32
2018-08-28T09:39:29.051Z,52.39
2018-08-28T09:41:58.486Z,52.90
2018-08-28T09:44:27.896Z,50.66
2018-08-28T09:46:57.347Z,50.01
2018-08-28T09:49:26.760Z,51.36
2018-08-28T09:51:56.191Z,52.01
2018-08-28T09:54:25.659Z,50.80
2018-08-28T09:56:55.071Z,51.61
2018-08-28T09:59:24.516Z,51.23
2018-08-28T10:02:00.692Z,51.98
2018-08-28T10:04:30.155Z,52.07
2018-08-28T10:06:59.591Z,52.08
2018-08-28T10:09:28.996Z,50.59
2018-08-28T10:11:58.448Z,52.56
2018-08-28T10:14:27.888Z,52.67
2018-08-28T10:16:57.303Z,51.21
2018-08-28T10:19:26.705Z,49.49
2018-08-28T10:21:56.167Z,48.64
2018-08-28T10:24:25.611Z,47.92
2018-08-28T10:26:55.044Z,48.56
2018-08-28T10:29:24.448Z,50.05
2018-08-28T10:31:53.939Z,52.98
2018-08-28T10:34:23.402Z,52.45
2018-08-28T10:36:52.845Z,51.83
2018-08-28T10:39:22.240Z,51.22
2018-08-28T10:41:51.671Z,52.19
2018-08-28T10:44:21.084Z,51.11
2018-08-28T10:46:50.691Z,51.00
2018-08-28T10:49:19.996Z,51.67
2018-08-28T10:51:49.443Z,51.37
2018-08-28T10:54:18.879Z,49.96
2018-08-28T10:56:48.292Z,49.95
2018-08-28T10:59:17.713Z,50.25
2018-08-28T11:01:47.172Z,51.05
2018-08-28T11:04:16.600Z,50.08
2018-08-28T11:06:46.050Z,49.59
2018-08-28T11:09:15.483Z,50.02
2018-08-28T11:11:44.888Z,49.87
2018-08-28T11:14:14.301Z,48.95
2018-08-28T11:16:43.721Z,48.82
2018-08-28T11:19:13.132Z,49.53
2018-08-28T11:21:42.608Z,48.49
2018-08-28T11:24:12.018Z,47.33
2018-08-28T11:26:41.443Z,46.79
2018-08-28T11:29:10.907Z,46.78
2018-08-28T11:31:40.328Z,45.56
2018-08-28T11:34:09.793Z,44.94
2018-08-28T11:36:39.211Z,46.79
2018-08-28T11:39:09.316Z,46.79
2018-08-28T11:41:38.808Z,47.44
2018-08-28T11:44:08.229Z,43.99
2018-08-28T11:46:37.643Z,44.57
2018-08-28T11:49:07.096Z,45.02
2018-08-28T11:51:36.520Z,44.91
2018-08-28T11:54:06.228Z,44.98
2018-08-28T11:56:36.002Z,47.18
2018-08-28T11:59:05.492Z,47.12
2018-08-28T12:01:35.016Z,45.34
2018-08-28T12:04:04.476Z,46.20
2018-08-28T12:06:33.971Z,46.25
2018-08-28T12:09:03.597Z,46.11
2018-08-28T12:11:33.021Z,46.42
2018-08-28T12:14:02.465Z,45.37
2018-08-28T12:16:31.900Z,45.54
2018-08-28T12:19:01.327Z,44.86
2018-08-28T12:21:30.923Z,44.59
2018-08-28T12:24:00.384Z,43.86
2018-08-28T12:26:29.861Z,42.74
2018-08-28T12:28:59.255Z,44.13
2018-08-28T12:31:28.671Z,44.21
2018-08-28T12:33:58.092Z,43.63
2018-08-28T12:36:27.500Z,41.94
2018-08-28T12:38:56.924Z,42.79
2018-08-28T12:41:26.552Z,44.88
2018-08-28T12:43:56.061Z,44.33
2018-08-28T12:46:25.467Z,43.76
2018-08-28T12:48:54.944Z,43.49
2018-08-28T12:51:24.537Z,43.01
2018-08-28T12:53:53.836Z,43.51
2018-08-28T12:56:23.316Z,42.15
2018-08-28T12:58:52.724Z,40.36
2018-08-28T13:01:22.161Z,40.41
2018-08-28T13:03:51.629Z,40.89
2018-08-28T13:06:21.138Z,41.97
2018-08-28T13:08:50.547Z,41.34
2018-08-28T13:11:19.992Z,41.48
2018-08-28T13:13:49.414Z,40.14
2018-08-28T13:16:18.836Z,38.05
2018-08-28T13:18:48.289Z,38.77
2018-08-28T13:21:17.786Z,38.24
2018-08-28T13:23:47.444Z,37.30
2018-08-28T13:26:16.876Z,38.37
2018-08-28T13:28:46.357Z,37.53
2018-08-28T13:31:15.851Z,36.32
2018-08-28T13:33:45.287Z,36.41
2018-08-28T13:36:14.733Z,35.88
2018-08-28T13:38:44.171Z,35.37
2018-08-28T13:41:13.742Z,34.01
2018-08-28T13:43:43.213Z,33.59
2018-08-28T13:46:12.683Z,33.30
2018-08-28T13:48:42.132Z,32.56
2018-08-28T13:51:11.681Z,33.14
2018-08-28T13:53:41.236Z,30.68
2018-08-28T13:56:10.656Z,31.33
2018-08-28T13:58:40.089Z,31.13
2018-08-28T14:01:09.499Z,30.98
2018-08-28T14:03:38.907Z,30.84
2018-08-28T14:06:08.387Z,31.88
2018-08-28T14:08:37.825Z,32.30
2018-08-28T14:11:07.244Z,32.30
2018-08-28T14:13:36.680Z,31.72
2018-08-28T14:16:06.170Z,31.00
2018-08-28T14:18:35.586Z,31.81
2018-08-28T14:21:05.058Z,31.78
2018-08-28T14:23:34.473Z,31.60
2018-08-28T14:26:03.931Z,30.36
2018-08-28T14:28:33.352Z,31.00
2018-08-28T14:31:02.812Z,29.69
2018-08-28T14:33:32.256Z,28.67
2018-08-28T14:36:01.780Z,28.67
2018-08-28T14:38:31.289Z,29.14
2018-08-28T14:41:00.719Z,28.77
2018-08-28T14:43:30.237Z,29.00
2018-08-28T14:45:59.635Z,30.38
2018-08-28T14:48:29.076Z,29.63
2018-08-28T14:50:58.496Z,29.80
2018-08-28T14:53:27.904Z,31.05
2018-08-28T14:55:57.339Z,30.39
2018-08-28T14:58:26.775Z,30.57
2018-08-28T15:00:56.224Z,31.45
2018-08-28T15:03:25.915Z,31.08
2018-08-28T15:05:55.345Z,31.37
2018-08-28T15:08:24.803Z,30.80
2018-08-28T15:10:54.236Z,29.19
2018-08-28T15:13:23.642Z,29.87
2018-08-28T15:15:53.071Z,30.41
2018-08-28T15:18:22.567Z,29.50
2018-08-28T15:20:52.056Z,30.50
2018-08-28T15:23:21.436Z,31.36
2018-08-28T15:25:50.845Z,30.71
2018-08-28T15:28:20.289Z,31.58
2018-08-28T15:30:49.710Z,31.40
2018-08-28T15:33:19.142Z,31.87
2018-08-28T15:35:48.732Z,32.17
2018-08-28T15:38:18.428Z,31.51
2018-08-28T15:40:47.880Z,31.88
2018-08-28T15:43:17.375Z,31.17
2018-08-28T15:45:46.793Z,32.22
2018-08-28T15:48:16.206Z,30.95
2018-08-28T15:50:45.600Z,31.61
2018-08-28T15:53:15.103Z,32.03
2018-08-28T15:55:44.524Z,31.14
2018-08-28T15:58:13.971Z,32.07
2018-08-28T16:00:43.400Z,32.00
2018-08-28T16:03:12.808Z,31.25
2018-08-28T16:05:42.263Z,31.14
2018-08-28T16:08:11.711Z,31.67
2018-08-28T16:10:41.159Z,31.29
2018-08-28T16:13:10.660Z,31.61
2018-08-28T16:15:40.099Z,30.50
2018-08-28T16:18:09.646Z,30.40
2018-08-28T16:20:39.036Z,30.38
2018-08-28T16:23:12.588Z,31.90
2018-08-28T16:25:42.023Z,32.04
2018-08-28T16:28:11.633Z,31.89
2018-08-28T16:30:41.199Z,31.35
2018-08-28T16:33:10.662Z,30.78
2018-08-28T16:35:40.619Z,29.49
2018-08-28T16:38:10.006Z,31.31
2018-08-28T16:40:39.487Z,33.23
2018-08-28T16:43:08.990Z,32.06
2018-08-28T16:45:38.400Z,31.23
2018-08-28T16:48:07.823Z,30.95
2018-08-28T16:50:37.251Z,31.56
2018-08-28T16:53:06.731Z,32.11
2018-08-28T16:55:36.191Z,33.01
2018-08-28T16:58:05.707Z,31.59
2018-08-28T17:00:35.139Z,33.35
2018-08-28T17:03:04.681Z,31.60
2018-08-28T17:05:34.136Z,34.03
2018-08-28T17:08:03.719Z,33.72
2018-08-28T17:10:33.227Z,33.72
2018-08-28T17:13:02.696Z,35.49
2018-08-28T17:15:32.164Z,33.22
2018-08-28T17:18:01.612Z,32.87
2018-08-28T17:20:31.152Z,34.52
2018-08-28T17:23:00.624Z,35.64
2018-08-28T17:25:30.135Z,35.39
2018-08-28T17:27:59.583Z,36.19
2018-08-28T17:30:29.077Z,36.09
2018-08-28T17:32:58.552Z,37.00
2018-08-28T17:35:28.055Z,37.79
2018-08-28T17:37:57.612Z,37.23
2018-08-28T17:40:27.115Z,38.72
2018-08-28T17:42:56.564Z,39.27
2018-08-28T17:45:26.383Z,40.21
2018-08-28T17:47:55.801Z,41.86
2018-08-28T17:50:26.008Z,42.21
2018-08-28T17:52:55.496Z,44.67
2018-08-28T17:55:24.905Z,45.19
2018-08-28T17:57:54.348Z,45.21
2018-08-28T18:00:24.085Z,45.65
2018-08-28T18:02:53.523Z,49.80
2018-08-28T18:05:22.987Z,49.96
2018-08-28T18:07:52.480Z,52.12
2018-08-28T18:10:22.679Z,52.52
2018-08-28T18:12:52.196Z,53.50
2018-08-28T18:17:30.841Z,53.51
2018-08-28T18:20:00.291Z,55.93
2018-08-28T18:22:30.959Z,56.04
2018-08-28T18:25:00.793Z,56.47
2018-08-28T18:27:30.467Z,57.84
2018-08-28T18:30:00.096Z,57.58
2018-08-28T18:32:29.721Z,57.46
2018-08-28T18:34:59.493Z,58.78
2018-08-28T18:37:30.068Z,58.22
2018-08-28T18:40:00.445Z,58.56
2018-08-28T18:42:32.209Z,59.00
2018-08-28T18:45:02.192Z,59.63
2018-08-28T18:47:32.494Z,60.19
2018-08-28T18:50:04.031Z,60.51
2018-08-28T18:52:35.900Z,61.05
2018-08-28T18:55:08.075Z,61.15
2018-08-28T18:57:40.686Z,61.84
2018-08-28T19:00:11.648Z,61.28
2018-08-28T19:02:44.223Z,61.31
2018-08-28T19:05:17.336Z,62.92
2018-08-28T19:07:50.315Z,63.10
2018-08-28T19:10:23.327Z,63.99
2018-08-28T19:12:57.354Z,63.84
2018-08-28T19:15:30.520Z,63.22
2018-08-28T19:18:02.862Z,65.14
2018-08-28T19:20:36.022Z,64.29
2018-08-28T19:23:09.484Z,66.00
2018-08-28T19:25:42.408Z,66.10
2018-08-28T19:28:15.586Z,66.13
2018-08-28T19:30:48.664Z,67.13
2018-08-28T19:33:22.025Z,66.51
2018-08-28T19:35:54.852Z,65.70
2018-08-28T19:38:27.935Z,66.93
2018-08-28T19:41:01.171Z,65.93
2018-08-28T19:43:34.226Z,66.42
2018-08-28T19:46:06.950Z,67.04
2018-08-28T19:48:39.197Z,67.00
2018-08-28T19:51:12.902Z,67.56
2018-08-28T19:53:45.749Z,67.75
2018-08-28T19:56:18.717Z,68.02
2018-08-28T19:58:50.185Z,68.33
2018-08-28T20:01:21.077Z,68.67
2018-08-28T20:03:52.007Z,69.06
2018-08-28T20:06:21.925Z,69.42
2018-08-28T20:08:51.496Z,68.72
2018-08-28T20:11:21.146Z,68.76
2018-08-28T20:13:50.639Z,70.15
2018-08-28T20:16:20.307Z,70.09
2018-08-28T20:18:50.402Z,69.88
2018-08-28T20:21:19.825Z,70.33
2018-08-28T20:23:49.460Z,70.70
2018-08-28T20:26:18.955Z,70.94
2018-08-28T20:28:48.504Z,70.52
2018-08-28T20:31:18.141Z,71.04
2018-08-28T20:33:48.156Z,70.64
2018-08-28T20:36:17.571Z,71.03
2018-08-28T20:38:47.320Z,71.24
2018-08-28T20:41:16.919Z,71.67
2018-08-28T20:43:52.099Z,71.63
2018-08-28T20:46:21.714Z,71.60
2018-08-28T20:48:51.500Z,72.26
2018-08-28T20:51:20.919Z,72.14
2018-08-28T20:53:50.384Z,72.74
2018-08-28T20:56:19.823Z,72.94
2018-08-28T20:58:49.300Z,73.63
2018-08-28T21:01:18.715Z,73.27
2018-08-28T21:03:48.119Z,73.63
2018-08-28T21:06:17.676Z,73.58
2018-08-28T21:08:47.088Z,74.34
2018-08-28T21:11:16.499Z,75.33
2018-08-28T21:13:45.978Z,75.42
2018-08-28T21:16:15.456Z,75.55
2018-08-28T21:18:44.892Z,74.65
2018-08-28T21:21:14.289Z,75.75
2018-08-28T21:23:43.732Z,75.74
2018-08-28T21:26:13.179Z,76.76
2018-08-28T21:28:42.599Z,76.27
2018-08-28T21:31:12.043Z,76.09
2018-08-28T21:33:41.704Z,76.84
2018-08-28T21:36:11.185Z,76.69
2018-08-28T21:38:40.635Z,76.78
2018-08-28T21:41:10.063Z,76.02
2018-08-28T21:43:39.488Z,76.99
2018-08-28T21:46:09.048Z,76.38
2018-08-28T21:48:38.459Z,77.13
2018-08-28T21:51:08.021Z,77.71
2018-08-28T21:53:37.484Z,78.45
2018-08-28T21:56:07.124Z,78.52
2018-08-28T21:58:36.576Z,78.95
2018-08-28T22:01:12.935Z,79.80
2018-08-28T22:03:43.087Z,79.95
2018-08-28T22:06:17.635Z,79.96
2018-08-28T22:08:47.036Z,80.29
2018-08-28T22:11:16.491Z,80.01
2018-08-28T22:13:45.918Z,79.96
2018-08-28T22:16:15.348Z,80.58
2018-08-28T22:18:44.793Z,80.69
2018-08-28T22:21:14.361Z,80.01
2018-08-28T22:23:43.875Z,80.02
2018-08-28T22:26:14.591Z,79.33
2018-08-28T22:28:44.050Z,80.29
2018-08-28T22:31:13.460Z,80.00
2018-08-28T22:33:42.991Z,80.35
2018-08-28T22:36:12.440Z,80.01
2018-08-28T22:38:41.868Z,79.76
2018-08-28T22:41:11.436Z,80.10
2018-08-28T22:43:40.836Z,80.69
2018-08-28T22:46:10.251Z,80.90
2018-08-28T22:48:39.692Z,80.61
2018-08-28T22:51:09.208Z,80.43
2018-08-28T22:53:38.712Z,80.95
2018-08-28T22:56:08.139Z,81.38
2018-08-28T22:58:37.564Z,81.81
2018-08-28T23:01:07.012Z,80.85
2018-08-28T23:03:36.451Z,80.87
2018-08-28T23:06:05.960Z,81.56
2018-08-28T23:08:35.415Z,81.31
2018-08-28T23:11:04.972Z,81.95
2018-08-28T23:13:34.528Z,81.60
2018-08-28T23:16:04.357Z,81.99
2018-08-28T23:18:33.760Z,82.84
2018-08-28T23:21:03.156Z,83.03
2018-08-28T23:23:32.604Z,82.84
2018-08-28T23:26:01.992Z,82.90
2018-08-28T23:28:31.387Z,83.21
2018-08-28T23:31:00.970Z,82.77
2018-08-28T23:33:30.367Z,83.09
2018-08-28T23:35:59.990Z,83.47
2018-08-28T23:38:29.539Z,84.17
2018-08-28T23:40:58.999Z,84.32
2018-08-28T23:43:28.464Z,84.47
2018-08-28T23:45:57.879Z,83.49
2018-08-28T23:48:27.324Z,83.89
2018-08-28T23:50:56.765Z,84.26
2018-08-28T23:53:26.187Z,84.23
2018-08-28T23:55:55.595Z,84.29
2018-08-28T23:58:25.007Z,84.71
